Time;durP1;ratioP1;P1;durP2;ratioP2;P2;SDS_P1;SDS_P2;PMS_P1;PMS_P2;Temp;Humidity;BMP_temperature;BMP_pressure;BME280_temperature;BME280_humidity;BME280_pressure;Samples;Min_cycle;Max_cycle;Signal;HPM_P1;HPM_P2
2022/09/03 00:02:20;;;;;;;8.02;1.02;;;;;;;17.74;62.11;100106.19;8306521;27;20397;-49
2022/09/03 00:06:49;;;;;;;2.35;1.13;;;;;;;17.66;62.35;100095.41;8304575;28;20065;-50
2022/09/03 00:11:17;;;;;;;3.15;1.33;;;;;;;17.64;62.73;100094.72;8287501;28;20030;-49
2022/09/03 00:15:42;;;;;;;3.85;1.60;;;;;;;17.61;62.94;100097.84;8286996;28;20038;-47
2022/09/03 00:20:03;;;;;;;6.53;1.85;;;;;;;17.62;63.05;100096.81;8287361;28;20097;-47
2022/09/03 00:24:29;;;;;;;7.00;1.33;;;;;;;17.50;63.51;100095.63;8287576;28;20042;-50
2022/09/03 00:28:55;;;;;;;3.25;1.30;;;;;;;17.44;63.76;100099.16;8287557;28;20034;-47
2022/09/03 00:33:25;;;;;;;3.13;1.35;;;;;;;17.35;63.99;100100.28;8286982;28;20038;-53
2022/09/03 00:37:45;;;;;;;2.40;1.17;;;;;;;17.32;64.10;100100.66;8301789;28;20041;-53
2022/09/03 00:42:33;;;;;;;4.22;1.38;;;;;;;17.30;63.86;100100.03;8294825;28;20065;-52
2022/09/03 00:47:13;;;;;;;5.57;1.40;;;;;;;17.23;64.23;100105.41;8286502;28;20049;-53
2022/09/03 00:56:46;;;;;;;3.25;1.10;;;;;;;17.24;64.23;100093.47;8329842;27;20400;-53
2022/09/03 01:01:17;;;;;;;6.13;1.30;;;;;;;17.20;64.38;100091.31;8316831;28;20105;-51
2022/09/03 01:06:17;;;;;;;2.08;1.20;;;;;;;17.18;64.56;100093.38;8297376;28;20048;-53
2022/09/03 01:11:09;;;;;;;5.50;1.30;;;;;;;17.14;64.71;100092.09;8302793;28;20125;-52
2022/09/03 01:16:04;;;;;;;5.10;1.10;;;;;;;17.14;64.68;100092.09;8316548;28;20491;-54
2022/09/03 01:20:54;;;;;;;1.65;1.02;;;;;;;17.16;64.35;100098.19;8319591;28;20491;-52
2022/09/03 01:30:03;;;;;;;3.17;1.08;;;;;;;17.17;64.16;100091.69;8394086;27;20474;-52
2022/09/03 01:35:02;;;;;;;5.75;1.40;;;;;;;17.12;64.26;100094.16;8382024;28;20048;-53
2022/09/03 01:40:02;;;;;;;4.95;0.90;;;;;;;17.19;64.11;100100.53;8385189;28;20059;-48
2022/09/03 01:49:14;;;;;;;2.65;1.25;;;;;;;17.03;64.72;100095.31;8359115;27;20925;-51
2022/09/03 01:53:45;;;;;;;4.72;1.30;;;;;;;16.91;64.89;100091.38;8344795;28;20406;-50
2022/09/03 01:58:45;;;;;;;4.30;1.10;;;;;;;16.81;65.28;100086.19;8353482;28;20076;-52
2022/09/03 02:03:14;;;;;;;1.92;1.00;;;;;;;16.75;65.85;100094.31;8311076;28;20555;-50
2022/09/03 02:07:34;;;;;;;4.68;1.50;;;;;;;16.68;65.92;100091.50;8330904;28;20033;-52
2022/09/03 02:11:59;;;;;;;1.25;0.80;;;;;;;16.63;66.07;100087.66;8336192;28;20045;-51
2022/09/03 02:16:20;;;;;;;4.50;0.95;;;;;;;16.58;66.49;100085.50;8334515;28;20046;-52
2022/09/03 02:20:40;;;;;;;3.40;1.30;;;;;;;16.52;66.81;100090.84;8336233;28;20042;-52
2022/09/03 02:25:04;;;;;;;2.70;1.38;;;;;;;16.50;67.02;100087.47;8320530;28;20072;-51
2022/09/03 02:29:26;;;;;;;3.03;1.00;;;;;;;16.48;67.24;100079.47;8328155;28;20060;-53
2022/09/03 02:33:47;;;;;;;2.22;1.17;;;;;;;16.53;67.21;100084.38;8339132;28;20044;-50
2022/09/03 02:38:16;;;;;;;3.28;1.20;;;;;;;16.54;67.06;100083.34;8369711;28;20508;-52
2022/09/03 02:42:37;;;;;;;1.63;0.93;;;;;;;16.53;67.11;100081.66;8352338;28;20503;-53
2022/09/03 02:47:02;;;;;;;1.38;1.20;;;;;;;16.61;66.95;100074.19;8352451;28;20383;-54
2022/09/03 02:51:23;;;;;;;4.78;1.05;;;;;;;16.71;66.31;100085.66;8330696;28;20042;-53
2022/09/03 02:55:44;;;;;;;2.90;0.90;;;;;;;16.68;66.40;100071.56;8331601;28;20566;-53
2022/09/03 03:00:07;;;;;;;6.78;1.10;;;;;;;16.74;66.26;100084.44;8330772;28;20117;-53
2022/09/03 03:04:27;;;;;;;7.38;1.38;;;;;;;16.80;66.34;100075.50;8309974;28;20033;-53
2022/09/03 03:08:47;;;;;;;4.45;1.10;;;;;;;16.83;66.27;100072.34;8310395;28;20033;-54
2022/09/03 03:13:07;;;;;;;2.67;1.00;;;;;;;16.85;66.21;100065.69;8309700;28;20046;-51
2022/09/03 03:17:27;;;;;;;2.55;1.25;;;;;;;16.87;66.10;100068.22;8315199;28;20055;-52
2022/09/03 03:21:50;;;;;;;1.48;0.95;;;;;;;16.91;66.09;100066.78;8322426;28;20047;-51
2022/09/03 03:26:10;;;;;;;1.00;0.70;;;;;;;16.90;65.88;100076.03;8327949;28;20041;-53
2022/09/03 03:30:30;;;;;;;3.42;1.15;;;;;;;16.90;66.11;100067.84;8344993;28;20507;-53
2022/09/03 03:34:54;;;;;;;2.75;1.20;;;;;;;16.91;66.47;100072.25;8360522;28;20033;-53
2022/09/03 03:39:14;;;;;;;1.65;1.08;;;;;;;16.95;66.08;100068.09;8328655;28;20453;-53
2022/09/03 03:43:35;;;;;;;2.28;1.60;;;;;;;16.96;66.08;100067.06;8327650;28;20033;-53
2022/09/03 03:47:56;;;;;;;3.75;1.40;;;;;;;16.97;66.30;100064.16;8331611;28;20057;-54
2022/09/03 03:52:17;;;;;;;4.22;1.20;;;;;;;17.01;66.30;100059.13;8327574;28;20037;-53
2022/09/03 03:56:37;;;;;;;1.95;1.13;;;;;;;17.04;66.34;100067.78;8325095;28;20087;-54
2022/09/03 04:00:57;;;;;;;10.05;1.50;;;;;;;17.18;65.92;100066.06;8349743;28;20037;-53
2022/09/03 04:05:17;;;;;;;4.05;1.50;;;;;;;17.25;65.54;100050.56;8385975;28;20162;-52
2022/09/03 04:09:40;;;;;;;5.60;1.40;;;;;;;17.25;65.27;100043.22;8358040;28;20494;-53
2022/09/03 04:14:01;;;;;;;2.33;1.60;;;;;;;17.30;65.36;100053.56;8345380;28;20406;-53
2022/09/03 04:18:21;;;;;;;4.22;2.10;;;;;;;17.43;65.06;100051.00;8355966;28;20090;-51
2022/09/03 04:22:41;;;;;;;4.97;1.90;;;;;;;17.42;64.75;100050.13;8326814;28;20060;-53
2022/09/03 04:27:02;;;;;;;5.10;2.10;;;;;;;17.51;64.54;100048.16;8325519;28;20041;-53
2022/09/03 04:31:22;;;;;;;3.80;1.90;;;;;;;17.55;64.61;100044.81;8338289;28;20037;-52
2022/09/03 04:35:43;;;;;;;1.90;1.33;;;;;;;17.58;64.20;100044.44;8326117;28;20560;-53
2022/09/03 04:40:03;;;;;;;2.45;1.55;;;;;;;17.57;64.33;100055.56;8321050;28;20041;-50
2022/09/03 04:44:23;;;;;;;6.93;1.38;;;;;;;17.57;64.29;100052.81;8326015;28;20043;-53
2022/09/03 04:48:55;;;;;;;3.50;1.42;;;;;;;17.51;64.63;100048.16;8307890;28;20057;-53
2022/09/03 04:53:14;;;;;;;3.38;1.10;;;;;;;17.55;64.39;100052.16;8321954;28;20087;-53
2022/09/03 04:57:36;;;;;;;2.13;1.13;;;;;;;17.49;64.83;100059.28;8326709;28;20035;-52
2022/09/03 05:01:56;;;;;;;2.88;1.20;;;;;;;17.50;64.99;100054.63;8322228;28;20108;-53
2022/09/03 05:06:16;;;;;;;1.70;0.70;;;;;;;17.47;64.81;100055.03;8330213;28;20112;-50
2022/09/03 05:10:36;;;;;;;1.35;0.73;;;;;;;17.55;64.76;100058.50;8342035;28;20061;-52
2022/09/03 05:14:58;;;;;;;1.25;0.70;;;;;;;17.62;64.54;100050.34;8326231;28;20402;-52
2022/09/03 05:19:19;;;;;;;4.07;1.23;;;;;;;17.63;64.38;100046.56;8324696;28;20049;-52
2022/09/03 05:23:39;;;;;;;2.03;0.77;;;;;;;17.62;64.54;100046.78;8324775;28;20033;-51
2022/09/03 05:28:00;;;;;;;2.47;0.70;;;;;;;17.65;64.51;100052.66;8317355;28;20052;-51
2022/09/03 05:32:20;;;;;;;2.90;0.80;;;;;;;17.86;64.12;100044.44;8335512;28;20557;-53
2022/09/03 05:36:40;;;;;;;5.63;1.65;;;;;;;17.99;63.97;100052.72;8319518;28;20510;-53
2022/09/03 05:41:01;;;;;;;0.98;0.75;;;;;;;18.01;63.57;100055.28;8329080;28;20084;-51
2022/09/03 05:45:22;;;;;;;2.42;0.88;;;;;;;17.98;63.70;100059.25;8325664;28;20624;-52
2022/09/03 05:49:41;;;;;;;2.15;0.85;;;;;;;17.94;64.19;100059.84;8312997;28;20069;-54
2022/09/03 05:54:02;;;;;;;3.72;0.80;;;;;;;18.00;63.90;100062.66;8322983;28;20123;-52
2022/09/03 05:58:22;;;;;;;5.82;0.90;;;;;;;18.03;63.53;100061.41;8325584;28;20041;-48
2022/09/03 06:02:44;;;;;;;1.85;0.80;;;;;;;18.05;63.54;100064.78;8315051;28;20037;-47
2022/09/03 06:07:05;;;;;;;2.60;1.13;;;;;;;18.11;63.69;100059.34;8327364;28;20170;-48
2022/09/03 06:11:26;;;;;;;1.75;1.00;;;;;;;18.16;63.49;100073.28;8293719;28;20042;-48
2022/09/03 06:15:45;;;;;;;4.88;0.80;;;;;;;18.20;63.73;100074.56;8311853;28;20045;-49
2022/09/03 06:20:07;;;;;;;3.05;0.93;;;;;;;18.21;63.76;100080.91;8331079;28;20037;-47
2022/09/03 06:24:29;;;;;;;1.80;0.90;;;;;;;18.26;63.55;100073.75;8320100;28;20033;-50
2022/09/03 06:28:53;;;;;;;3.10;0.93;;;;;;;18.31;63.53;100076.75;8304359;28;20050;-47
2022/09/03 06:33:10;;;;;;;3.00;0.70;;;;;;;18.42;63.46;100073.47;8297822;28;20491;-48
2022/09/03 06:37:31;;;;;;;1.83;0.85;;;;;;;18.56;63.11;100077.13;8296569;28;20451;-47
2022/09/03 06:41:55;;;;;;;5.13;0.80;;;;;;;18.65;62.98;100074.03;8296715;28;20399;-47
2022/09/03 06:46:15;;;;;;;1.90;0.70;;;;;;;18.78;62.55;100074.09;8304003;28;20487;-51
2022/09/03 06:50:35;;;;;;;1.42;0.60;;;;;;;18.86;61.86;100071.19;8318549;28;20284;-48
2022/09/03 06:55:02;;;;;;;1.75;0.90;;;;;;;19.00;61.90;100072.91;8321555;28;20053;-49
2022/09/03 06:59:22;;;;;;;4.65;0.98;;;;;;;19.10;61.54;100078.84;8326576;28;20039;-50
2022/09/03 07:03:42;;;;;;;1.33;0.70;;;;;;;19.19;61.27;100080.34;8329930;28;20052;-48
2022/09/03 07:08:02;;;;;;;2.63;0.73;;;;;;;19.23;61.00;100084.38;8325588;28;20049;-47
2022/09/03 07:12:24;;;;;;;2.10;0.80;;;;;;;19.22;60.79;100092.81;8327184;28;20317;-51
2022/09/03 07:16:45;;;;;;;3.17;0.90;;;;;;;19.28;60.92;100078.31;8325937;28;20045;-48
2022/09/03 07:21:05;;;;;;;4.28;0.90;;;;;;;19.31;61.07;100084.19;8318441;28;20095;-50
2022/09/03 07:25:27;;;;;;;2.97;0.80;;;;;;;19.43;60.93;100093.50;8325715;28;20048;-49
2022/09/03 07:29:47;;;;;;;2.45;0.70;;;;;;;19.48;60.69;100092.06;8313875;28;20602;-51
2022/09/03 07:34:07;;;;;;;4.55;0.70;;;;;;;19.58;60.45;100097.97;8310752;28;20037;-49
2022/09/03 07:38:27;;;;;;;1.98;0.80;;;;;;;19.65;60.39;100090.59;8324070;28;20455;-49
2022/09/03 07:42:48;;;;;;;1.13;0.60;;;;;;;19.82;60.56;100089.97;8319337;28;20124;-49
2022/09/03 07:47:08;;;;;;;2.25;0.80;;;;;;;20.04;59.99;100098.84;8320757;28;20045;-49
2022/09/03 07:51:28;;;;;;;0.75;0.68;;;;;;;20.37;59.46;100096.97;8313726;28;20037;-51
2022/09/03 07:55:48;;;;;;;2.15;0.80;;;;;;;20.84;58.30;100096.63;8309059;28;20415;-50
2022/09/03 08:00:11;;;;;;;2.63;0.90;;;;;;;21.31;57.38;100093.44;8313095;28;20111;-48
2022/09/03 08:04:32;;;;;;;2.45;0.68;;;;;;;22.20;55.95;100089.44;8317422;28;20045;-51
2022/09/03 08:08:50;;;;;;;3.33;0.70;;;;;;;22.42;55.97;100093.44;8336338;28;20177;-49
2022/09/03 08:13:10;;;;;;;1.85;0.80;;;;;;;22.03;56.62;100110.34;8318883;28;20404;-50
2022/09/03 08:17:32;;;;;;;2.38;1.13;;;;;;;22.19;57.61;100098.78;8313802;28;20062;-50
2022/09/03 08:21:54;;;;;;;1.80;1.10;;;;;;;21.67;58.94;100104.66;8324482;28;20487;-49
2022/09/03 08:26:14;;;;;;;2.25;0.75;;;;;;;21.43;59.40;100108.19;8307299;28;20384;-48
2022/09/03 08:30:34;;;;;;;4.95;1.20;;;;;;;21.46;59.80;100107.75;8315226;28;20519;-49
2022/09/03 08:34:56;;;;;;;6.88;1.20;;;;;;;21.71;59.57;100116.91;8341111;28;20044;-51
2022/09/03 08:39:17;;;;;;;4.65;0.98;;;;;;;21.47;60.32;100119.63;8289046;28;20045;-48
2022/09/03 08:44:03;;;;;;;2.40;0.88;;;;;;;21.83;60.05;100119.84;8316075;28;20068;-50
2022/09/03 08:48:33;;;;;;;2.30;1.15;;;;;;;22.18;59.24;100119.13;8325435;28;20076;-49
2022/09/03 08:52:56;;;;;;;1.63;0.75;;;;;;;22.19;59.15;100115.28;8286826;28;20506;-50
2022/09/03 08:57:26;;;;;;;1.85;0.88;;;;;;;22.32;58.76;100109.66;8315463;28;20041;-51
2022/09/03 09:06:21;;;;;;;1.23;0.85;;;;;;;22.28;58.33;100107.59;8304539;28;20819;-48
2022/09/03 09:11:22;;;;;;;6.03;0.88;;;;;;;22.51;58.15;100114.16;8275981;28;20184;-50
2022/09/03 09:16:06;;;;;;;4.03;1.27;;;;;;;22.97;58.39;100125.53;8267318;28;20569;-49
2022/09/03 09:20:40;;;;;;;2.40;0.90;;;;;;;22.77;58.05;100124.94;8281382;28;20062;-50
2022/09/03 09:25:08;;;;;;;7.25;1.42;;;;;;;22.80;58.64;100116.19;8281796;28;20514;-48
2022/09/03 09:29:35;;;;;;;2.10;0.95;;;;;;;23.05;58.28;100125.22;8272050;28;20042;-47
2022/09/03 09:33:55;;;;;;;2.10;0.93;;;;;;;23.55;57.58;100134.16;8267121;28;20039;-48
2022/09/03 09:38:16;;;;;;;3.90;0.90;;;;;;;23.31;57.80;100126.84;8268776;28;20050;-49
2022/09/03 09:42:37;;;;;;;2.25;1.20;;;;;;;23.15;57.78;100125.50;8263457;28;20039;-50
2022/09/03 09:47:15;;;;;;;2.90;1.20;;;;;;;23.11;58.55;100128.97;8269399;28;20100;-49
2022/09/03 09:51:34;;;;;;;3.85;1.52;;;;;;;23.17;57.83;100136.31;8277056;28;20080;-51
2022/09/03 09:56:15;;;;;;;4.10;1.30;;;;;;;23.01;59.27;100132.28;8278574;28;20043;-50
2022/09/03 10:00:37;;;;;;;3.58;1.30;;;;;;;22.62;60.14;100126.34;8257951;28;20422;-49
2022/09/03 10:05:08;;;;;;;7.20;1.45;;;;;;;22.21;60.78;100145.38;8266185;28;20488;-48
2022/09/03 10:09:28;;;;;;;4.78;1.23;;;;;;;22.10;61.61;100122.16;8207472;28;20049;-51
2022/09/03 10:14:01;;;;;;;4.70;1.15;;;;;;;22.38;61.28;100130.78;8267061;28;20042;-49
2022/09/03 10:18:46;;;;;;;3.47;1.20;;;;;;;24.84;57.33;100130.34;8249819;28;20419;-50
2022/09/03 10:23:16;;;;;;;1.88;1.05;;;;;;;27.54;50.95;100129.84;8233867;28;20412;-50
2022/09/03 10:27:36;;;;;;;4.57;1.20;;;;;;;28.27;49.54;100127.28;8239296;28;20153;-48
2022/09/03 10:32:36;;;;;;;3.17;1.15;;;;;;;29.74;47.22;100127.91;8230770;28;20441;-51
2022/09/03 10:37:10;;;;;;;3.47;1.23;;;;;;;30.40;46.21;100126.88;8228205;28;20125;-49
2022/09/03 10:41:54;;;;;;;2.65;0.85;;;;;;;30.33;46.61;100121.59;8236173;28;20049;-52
2022/09/03 10:50:43;;;;;;;2.25;1.20;;;;;;;31.46;45.16;100119.97;8355265;27;20390;-48
2022/09/03 11:00:07;;;;;;;8.38;1.17;;;;;;;30.73;45.51;100108.72;8271143;28;20372;-48
2022/09/03 11:05:04;;;;;;;5.47;1.20;;;;;;;30.96;45.26;100108.97;8254308;28;20066;-51
2022/09/03 11:09:32;;;;;;;2.25;0.93;;;;;;;31.46;45.02;100113.53;8260642;28;20553;-50
2022/09/03 11:14:11;;;;;;;2.35;1.45;;;;;;;31.50;45.06;100103.47;8253567;28;20144;-51
2022/09/03 11:18:42;;;;;;;1.60;1.10;;;;;;;31.54;44.63;100088.63;8272065;28;20124;-48
2022/09/03 11:23:05;;;;;;;3.80;1.15;;;;;;;31.96;43.87;100090.91;8252452;28;20053;-49
2022/09/03 11:27:26;;;;;;;1.63;1.42;;;;;;;31.85;44.13;100089.31;8242250;28;20042;-54
2022/09/03 11:32:27;;;;;;;4.80;1.38;;;;;;;32.14;44.21;100084.63;8290199;28;20034;-53
2022/09/03 11:36:56;;;;;;;2.72;1.30;;;;;;;32.01;44.15;100076.88;8259894;28;20064;-53
2022/09/03 11:41:17;;;;;;;2.63;1.38;;;;;;;32.45;43.41;100072.06;8269226;28;20047;-54
2022/09/03 11:45:41;;;;;;;2.78;1.42;;;;;;;31.53;45.01;100058.19;8271526;28;20068;-53
2022/09/03 11:50:29;;;;;;;3.22;1.15;;;;;;;31.68;44.75;100060.88;8273945;28;20257;-53
2022/09/03 11:54:57;;;;;;;2.63;1.55;;;;;;;31.80;45.00;100050.97;8276686;28;20046;-53
2022/09/03 11:59:25;;;;;;;2.78;1.40;;;;;;;31.84;44.31;100054.91;8259985;28;20562;-55
2022/09/03 12:03:49;;;;;;;2.65;1.60;;;;;;;31.60;44.66;100042.75;8235566;28;20053;-54
2022/09/03 12:08:48;;;;;;;3.40;1.90;;;;;;;31.54;45.09;100048.66;8224609;28;20042;-52
2022/09/03 12:13:37;;;;;;;6.30;1.70;;;;;;;30.80;46.30;100045.91;8251657;28;20633;-53
2022/09/03 12:18:21;;;;;;;2.08;1.42;;;;;;;29.52;48.42;100043.66;8266010;28;20023;-50
2022/09/03 12:22:38;;;;;;;3.10;1.77;;;;;;;28.67;49.94;100037.72;8249344;28;20066;-54
2022/09/03 12:27:04;;;;;;;3.65;1.80;;;;;;;27.48;52.45;100051.16;8251932;28;20046;-53
2022/09/03 12:31:28;;;;;;;5.00;1.75;;;;;;;27.40;53.14;100048.00;8254127;28;20055;-53
2022/09/03 12:35:45;;;;;;;6.15;2.00;;;;;;;27.12;54.17;100049.06;8252664;28;20039;-53
2022/09/03 12:40:09;;;;;;;2.60;1.80;;;;;;;27.52;53.67;100045.91;8280454;28;20054;-53
2022/09/03 12:44:30;;;;;;;;;;;;;;;27.33;54.06;100044.59;8252632;28;20050;-52
2022/09/03 12:48:50;;;;;;;3.03;2.05;;;;;;;27.53;53.84;100047.59;8252473;28;19929;-53
2022/09/03 12:53:24;;;;;;;2.20;1.50;;;;;;;27.34;54.42;100043.50;8246149;28;20485;-52
2022/09/03 12:57:54;;;;;;;7.53;2.25;;;;;;;26.92;54.73;100034.09;8237490;28;20325;-54
2022/09/03 13:02:21;;;;;;;2.03;1.83;;;;;;;26.66;55.61;100036.50;8238854;28;20079;-55
2022/09/03 13:06:48;;;;;;;2.35;1.80;;;;;;;27.03;55.11;100031.19;8253702;28;20066;-54
2022/09/03 13:11:23;;;;;;;3.78;1.92;;;;;;;27.08;55.81;100033.19;8252666;28;20030;-52
2022/09/03 13:15:46;;;;;;;4.55;2.15;;;;;;;27.23;55.07;100025.03;8256159;28;20488;-54
2022/09/03 13:20:32;;;;;;;6.95;1.73;;;;;;;27.86;54.27;100017.66;8239815;28;20030;-54
2022/09/03 13:25:05;;;;;;;3.20;1.90;;;;;;;27.21;54.94;100035.53;8247995;28;20322;-55
2022/09/03 13:30:01;;;;;;;3.20;2.17;;;;;;;27.13;54.75;100031.28;8248671;28;20129;-54
2022/09/03 13:34:32;;;;;;;2.88;2.03;;;;;;;27.04;55.08;100032.03;8265388;28;20041;-54
2022/09/03 13:39:16;;;;;;;2.20;1.60;;;;;;;27.47;54.17;100032.00;8245111;28;20041;-55
2022/09/03 13:43:41;;;;;;;5.80;2.08;;;;;;;27.03;55.12;100030.34;8253027;28;20125;-52
2022/09/03 13:52:41;;;;;;;4.47;1.80;;;;;;;27.46;54.29;100028.38;8231334;28;20034;-55
2022/09/03 13:57:12;;;;;;;3.35;1.92;;;;;;;27.20;54.62;100031.09;8271146;28;20117;-56
2022/09/03 14:01:46;;;;;;;4.97;2.25;;;;;;;26.93;55.62;100030.22;8247819;28;20507;-55
2022/09/03 14:06:14;;;;;;;3.27;1.67;;;;;;;27.14;54.99;100032.97;8248509;28;20058;-55
2022/09/03 14:10:52;;;;;;;3.42;2.05;;;;;;;26.69;56.08;100030.44;8228054;28;20031;-54
2022/09/03 14:15:37;;;;;;;2.67;1.75;;;;;;;26.62;56.54;100029.81;8224171;28;20046;-55
2022/09/03 14:20:21;;;;;;;1.77;1.50;;;;;;;27.04;56.35;100029.25;8215988;28;20049;-55
2022/09/03 14:24:47;;;;;;;;;;;;;;;26.67;56.22;100037.34;8217743;28;20035;-55
2022/09/03 14:29:37;;;;;;;2.85;1.63;;;;;;;26.49;57.30;100035.69;8206236;28;19926;-54
2022/09/03 14:34:26;;;;;;;5.65;2.00;;;;;;;26.47;57.18;100037.06;8240816;28;20038;-49
2022/09/03 14:39:27;;;;;;;3.47;2.15;;;;;;;26.35;57.45;100025.25;8243771;28;20062;-48
2022/09/03 14:44:14;;;;;;;2.38;1.88;;;;;;;26.41;57.84;100050.00;8244232;28;20048;-48
2022/09/03 14:49:00;;;;;;;4.13;1.92;;;;;;;26.35;57.88;100042.69;8242103;28;20101;-48
2022/09/03 14:53:50;;;;;;;9.93;2.42;;;;;;;26.17;59.86;100048.50;8267903;28;20488;-51
2022/09/03 14:58:35;;;;;;;4.43;2.58;;;;;;;25.11;68.12;100069.78;8251370;28;20053;-48
2022/09/03 15:03:25;;;;;;;17.65;3.75;;;;;;;23.67;74.88;100076.22;8262887;28;20499;-54
2022/09/03 15:08:25;;;;;;;10.07;3.88;;;;;;;23.18;77.54;100078.16;8246544;28;20035;-54
2022/09/03 15:12:55;;;;;;;16.60;5.60;;;;;;;22.61;93.17;100069.56;8247477;28;20580;-54
2022/09/03 15:21:51;;;;;;;12.63;4.97;;;;;;;22.52;90.38;100058.00;8393817;27;20939;-51
2022/09/03 15:26:28;;;;;;;6.15;3.67;;;;;;;22.79;87.67;100062.16;8371399;28;20047;-52
2022/09/03 15:30:52;;;;;;;6.40;3.28;;;;;;;22.57;90.45;100069.16;8364067;28;20041;-52
2022/09/03 15:35:43;;;;;;;5.78;3.00;;;;;;;22.55;90.87;100071.31;8369120;28;20072;-52
2022/09/03 15:40:10;;;;;;;5.45;3.53;;;;;;;22.69;88.30;100075.59;8358168;27;20040;-52
2022/09/03 15:44:32;;;;;;;4.78;4.30;;;;;;;23.06;97.49;100080.00;8357995;28;20118;-52
2022/09/03 15:48:58;;;;;;;7.15;4.05;;;;;;;23.31;94.88;100076.34;8363008;27;20552;-51
2022/09/03 15:53:47;;;;;;;3.30;3.00;;;;;;;23.60;91.06;100081.03;8356199;28;20043;-51
2022/09/03 15:58:17;;;;;;;4.03;2.17;;;;;;;23.92;86.04;100076.88;8370765;28;20044;-53
2022/09/03 16:02:53;;;;;;;5.00;2.17;;;;;;;24.12;82.57;100080.19;8394255;28;20071;-49
2022/09/03 16:07:38;;;;;;;2.08;1.88;;;;;;;24.17;78.38;100089.44;8388992;28;20091;-53
2022/09/03 16:12:32;;;;;;;3.63;1.90;;;;;;;24.11;75.10;100084.00;8368107;28;20049;-50
2022/09/03 16:17:02;;;;;;;4.32;3.92;;;;;;;23.90;75.04;100090.06;8361093;28;20037;-51
2022/09/03 16:21:33;;;;;;;2.40;2.20;;;;;;;23.81;77.02;100095.09;8364252;28;20052;-51
2022/09/03 16:26:04;;;;;;;4.43;2.13;;;;;;;23.78;77.52;100094.75;8394755;28;20518;-51
2022/09/03 16:30:27;;;;;;;3.60;1.92;;;;;;;23.72;77.61;100084.66;8387303;28;20464;-51
2022/09/03 16:35:08;;;;;;;2.83;1.67;;;;;;;23.66;77.73;100091.94;8374084;28;20369;-52
2022/09/03 16:39:53;;;;;;;5.03;2.30;;;;;;;23.60;79.28;100092.06;8379454;28;20044;-52
2022/09/03 16:44:40;;;;;;;3.58;1.98;;;;;;;23.57;79.82;100095.28;8380067;28;20086;-52
2022/09/03 16:49:25;;;;;;;3.95;2.00;;;;;;;23.55;81.39;100101.03;8375985;28;20040;-52
2022/09/03 16:54:18;;;;;;;2.15;1.52;;;;;;;23.60;81.62;100092.06;8377004;28;20509;-48
2022/09/03 16:59:02;;;;;;;2.50;1.70;;;;;;;23.56;79.65;100096.34;8377695;28;20036;-51
2022/09/03 17:03:56;;;;;;;2.17;1.77;;;;;;;23.50;80.41;100097.28;8369338;28;20041;-53
2022/09/03 17:08:57;;;;;;;3.65;1.60;;;;;;;23.50;78.07;100105.56;8374488;28;20132;-53
2022/09/03 17:13:43;;;;;;;2.97;1.67;;;;;;;23.54;78.78;100104.03;8379054;28;20472;-53
2022/09/03 17:18:14;;;;;;;4.85;1.95;;;;;;;23.56;78.95;100096.34;8374934;28;20053;-51
2022/09/03 17:22:48;;;;;;;2.80;1.52;;;;;;;23.53;77.26;100091.28;8366222;28;20044;-50
2022/09/03 17:27:41;;;;;;;1.80;1.30;;;;;;;23.37;77.83;100098.31;8372197;28;20048;-51
2022/09/03 17:32:37;;;;;;;1.77;1.67;;;;;;;23.34;77.05;100095.19;8376289;28;20426;-50
2022/09/03 17:37:07;;;;;;;1.90;1.60;;;;;;;23.32;77.31;100111.16;8372643;28;20064;-49
2022/09/03 17:41:43;;;;;;;6.85;1.25;;;;;;;23.18;77.32;100125.06;8372681;28;20120;-51
2022/09/03 17:46:13;;;;;;;2.63;1.58;;;;;;;23.03;78.18;100124.59;8379095;28;20040;-52
2022/09/03 17:59:38;;;;;;;2.03;1.58;;;;;;;22.83;78.56;100146.06;8337478;27;20388;-51
2022/09/03 18:04:11;;;;;;;1.67;1.42;;;;;;;22.88;77.85;100137.94;8300943;28;20034;-48
2022/09/03 18:08:52;;;;;;;;;;;;;;;22.80;78.04;100149.28;8307354;28;20080;-50
2022/09/03 18:13:38;;;;;;;1.88;1.70;;;;;;;22.68;78.60;100147.50;8311247;28;20255;-50
2022/09/03 18:18:10;;;;;;;2.55;1.50;;;;;;;22.65;78.81;100148.78;8312903;28;20042;-48
2022/09/03 20:10:46;;;;;;;4.97;3.88;;;;;;;19.68;100.00;100273.97;8375776;28;20044;-51
2022/09/03 20:14:47;;;;;;;6.05;3.45;;;;;;;19.60;100.00;100277.72;8367564;28;20313;-51
2022/09/03 20:19:02;;;;;;;5.32;3.78;;;;;;;19.57;100.00;100288.28;8361277;28;20033;-50
2022/09/03 20:23:18;;;;;;;5.38;3.95;;;;;;;19.58;100.00;100281.72;8372381;28;20628;-51
2022/09/03 20:27:58;;;;;;;5.78;4.60;;;;;;;19.44;100.00;100289.03;8367939;28;20296;-53
2022/09/03 20:36:45;;;;;;;6.78;4.32;;;;;;;19.23;100.00;100287.22;8354856;28;20400;-51
2022/09/03 20:41:26;;;;;;;5.53;4.13;;;;;;;19.23;100.00;100291.84;8353464;28;20041;-51
2022/09/03 20:45:36;;;;;;;5.60;4.13;;;;;;;19.17;100.00;100293.50;8330473;28;20045;-47
2022/09/03 20:50:03;;;;;;;6.10;4.30;;;;;;;19.13;100.00;100296.84;8349998;28;20036;-51
2022/09/03 20:58:37;;;;;;;4.47;4.07;;;;;;;18.96;100.00;100303.66;8390213;27;20409;-50
2022/09/03 21:03:07;;;;;;;6.22;4.57;;;;;;;18.88;100.00;100303.84;8376993;28;20083;-49
2022/09/03 21:07:36;;;;;;;5.75;4.50;;;;;;;18.88;100.00;100309.31;8346560;28;20029;-49
2022/09/03 21:11:50;;;;;;;5.25;4.30;;;;;;;18.79;100.00;100322.28;8331220;28;20056;-50
2022/09/03 21:16:06;;;;;;;5.45;4.38;;;;;;;18.77;100.00;100310.72;8367881;28;20047;-50
2022/09/03 21:20:32;;;;;;;8.20;4.60;;;;;;;18.74;100.00;100312.97;8361577;28;20402;-52
2022/09/03 21:24:43;;;;;;;6.35;5.05;;;;;;;18.68;100.00;100319.25;8374109;28;20110;-52
2022/09/03 21:28:52;;;;;;;5.63;4.82;;;;;;;18.58;100.00;100316.88;8362247;28;20037;-53
2022/09/03 21:33:01;;;;;;;5.85;4.95;;;;;;;18.53;100.00;100311.13;8363784;28;20044;-52
2022/09/03 21:37:04;;;;;;;6.45;5.00;;;;;;;18.46;100.00;100317.56;8369555;28;20053;-52
2022/09/03 21:41:28;;;;;;;6.93;5.35;;;;;;;18.41;100.00;100334.59;8366629;28;20068;-49
2022/09/03 21:46:08;;;;;;;8.40;4.65;;;;;;;18.36;100.00;100330.72;8369665;28;20127;-52
2022/09/03 21:50:34;;;;;;;6.85;5.38;;;;;;;18.45;100.00;100340.53;8372727;28;20037;-52
2022/09/03 21:54:35;;;;;;;8.63;5.60;;;;;;;18.31;100.00;100333.19;8349891;28;20532;-50
2022/09/03 22:02:49;;;;;;;6.50;5.65;;;;;;;18.24;100.00;100343.22;8393759;27;20505;-48
2022/09/03 22:07:06;;;;;;;8.77;5.43;;;;;;;18.20;100.00;100342.75;8380673;28;20044;-51
2022/09/03 22:11:18;;;;;;;6.65;5.85;;;;;;;18.07;100.00;100337.13;8383217;28;20056;-52
2022/09/03 22:15:19;;;;;;;6.82;5.68;;;;;;;18.18;100.00;100347.59;8376939;28;20524;-52
2022/09/03 22:19:20;;;;;;;7.70;5.50;;;;;;;18.19;100.00;100341.06;8382950;28;20549;-52
2022/09/03 22:23:29;;;;;;;10.63;6.10;;;;;;;18.17;100.00;100342.31;8381722;28;20041;-49
2022/09/03 22:27:39;;;;;;;8.02;5.97;;;;;;;18.13;100.00;100352.78;8383820;28;20172;-51
2022/09/03 22:31:54;;;;;;;10.07;6.47;;;;;;;18.11;100.00;100352.13;8384034;28;20033;-51
2022/09/03 22:36:22;;;;;;;9.27;6.30;;;;;;;18.08;100.00;100352.50;8382985;28;20406;-51
2022/09/03 22:40:45;;;;;;;12.27;6.45;;;;;;;18.15;100.00;100353.44;8382304;28;20059;-52
2022/09/03 22:45:11;;;;;;;8.40;6.80;;;;;;;18.18;100.00;100361.28;8382647;28;20048;-48
2022/09/03 22:49:37;;;;;;;7.13;6.43;;;;;;;17.97;100.00;100357.63;8381120;28;20668;-49
2022/09/03 22:53:59;;;;;;;7.88;7.07;;;;;;;17.83;100.00;100356.63;8384292;28;20033;-52
2022/09/03 22:58:07;;;;;;;10.25;7.60;;;;;;;17.81;100.00;100369.63;8379238;28;20041;-51
2022/09/03 23:02:16;;;;;;;11.35;7.47;;;;;;;17.84;100.00;100371.16;8384089;28;20048;-49
2022/09/03 23:06:25;;;;;;;9.70;7.63;;;;;;;17.85;100.00;100370.09;8383582;28;20048;-51
2022/09/03 23:10:32;;;;;;;10.70;7.57;;;;;;;17.88;100.00;100367.84;8383269;28;20040;-51
2022/09/03 23:14:50;;;;;;;9.85;8.18;;;;;;;17.97;100.00;100374.03;8361892;28;20037;-49
2022/09/03 23:18:51;;;;;;;12.20;8.07;;;;;;;18.00;100.00;100380.00;8361339;28;20063;-52
2022/09/03 23:23:16;;;;;;;9.95;8.38;;;;;;;17.99;100.00;100383.75;8361101;28;20056;-49
2022/09/03 23:27:24;;;;;;;12.68;8.65;;;;;;;17.90;100.00;100384.06;8360321;28;20041;-51
2022/09/03 23:31:26;;;;;;;10.95;8.95;;;;;;;17.88;100.00;100383.38;8354588;28;20123;-51